createdAt,value
2022-10-14T00:00:09.639Z,96984.50
2022-10-14T00:02:38.237Z,96983.38
2022-10-14T00:05:05.434Z,96973.69
2022-10-14T00:07:32.014Z,96977.06
2022-10-14T00:09:58.578Z,96978.91
2022-10-14T00:12:25.131Z,96978.50
2022-10-14T00:14:51.789Z,96980.00
2022-10-14T00:17:18.741Z,96974.25
2022-10-14T00:19:45.526Z,96973.94
2022-10-14T00:22:12.148Z,96965.03
2022-10-14T00:24:38.687Z,96973.63
2022-10-14T00:27:05.469Z,96976.22
2022-10-14T00:29:32.058Z,96975.03
2022-10-14T00:31:58.651Z,96988.38
2022-10-14T00:34:25.791Z,96984.91
2022-10-14T00:36:54.357Z,96983.16
2022-10-14T00:39:20.927Z,97009.59
2022-10-14T00:41:47.515Z,97001.41
2022-10-14T00:44:14.199Z,96973.84
2022-10-14T00:46:43.046Z,96968.19
2022-10-14T00:49:18.897Z,96967.44
2022-10-14T00:51:51.391Z,96948.41
2022-10-14T00:54:21.078Z,96950.25
2022-10-14T00:56:50.340Z,96934.28
2022-10-14T00:59:17.576Z,96935.81
2022-10-14T01:01:45.103Z,96935.38
2022-10-14T01:04:11.682Z,96932.47
2022-10-14T01:07:01.419Z,96925.38
2022-10-14T01:09:41.189Z,96933.53
2022-10-14T01:12:51.607Z,96932.75
2022-10-14T01:15:40.961Z,96920.81
2022-10-14T01:18:25.949Z,96922.69
2022-10-14T01:21:25.371Z,96925.28
2022-10-14T01:24:22.962Z,96918.22
2022-10-14T01:27:11.779Z,96918.53
2022-10-14T01:30:09.575Z,96918.22
2022-10-14T01:32:54.598Z,96918.97
2022-10-14T01:35:56.846Z,96913.00
2022-10-14T01:38:34.595Z,96911.47
2022-10-14T01:41:12.118Z,96904.41
2022-10-14T01:43:42.712Z,96910.69
2022-10-14T01:46:12.305Z,96896.59
2022-10-14T01:48:45.492Z,96899.97
2022-10-14T01:51:19.806Z,96891.81
2022-10-14T01:53:54.897Z,96888.44
2022-10-14T01:56:26.547Z,96891.03
2022-10-14T01:58:53.831Z,96880.16
2022-10-14T02:01:20.462Z,96879.84
2022-10-14T02:03:48.075Z,96879.84
2022-10-14T02:06:27.903Z,96880.63
2022-10-14T02:09:12.828Z,96875.41
2022-10-14T02:12:09.106Z,96866.47
2022-10-14T02:14:48.852Z,96869.09
2022-10-14T02:17:23.384Z,96872.88
2022-10-14T02:19:57.871Z,96868.34
2022-10-14T02:22:30.802Z,96869.75
2022-10-14T02:25:01.994Z,96862.25
2022-10-14T02:27:31.392Z,96851.16
2022-10-14T02:29:59.973Z,96852.28
2022-10-14T02:32:28.385Z,96849.66
2022-10-14T02:34:58.243Z,96854.53
2022-10-14T02:37:26.395Z,96858.25
2022-10-14T02:40:02.773Z,96866.16
2022-10-14T02:42:31.677Z,96854.97
2022-10-14T02:45:00.408Z,96860.94
2022-10-14T02:47:27.841Z,96860.94
2022-10-14T02:49:54.670Z,96860.19
2022-10-14T02:52:21.558Z,96860.09
2022-10-14T02:54:48.368Z,96855.28
2022-10-14T02:57:15.002Z,96858.91
2022-10-14T02:59:41.607Z,96854.09
2022-10-14T03:02:08.733Z,96843.94
2022-10-14T03:04:38.451Z,96832.97
2022-10-14T03:07:05.444Z,96832.97
2022-10-14T03:09:36.304Z,96832.53
2022-10-14T03:12:03.352Z,96833.63
2022-10-14T03:14:29.950Z,96829.16
2022-10-14T03:16:57.315Z,96826.56
2022-10-14T03:19:25.267Z,96831.44
2022-10-14T03:21:54.854Z,96821.00
2022-10-14T03:24:22.058Z,96829.69
2022-10-14T03:27:00.839Z,96851.63
2022-10-14T03:29:27.487Z,96864.66
2022-10-14T03:32:08.570Z,96844.56
2022-10-14T03:34:53.428Z,96832.72
2022-10-14T03:37:23.666Z,96842.50
2022-10-14T03:39:54.085Z,96835.44
2022-10-14T03:42:21.355Z,96832.47
2022-10-14T03:44:49.581Z,96831.66
2022-10-14T03:47:21.525Z,96835.75
2022-10-14T03:49:48.274Z,96821.53
2022-10-14T03:52:24.273Z,96826.09
2022-10-14T03:55:02.203Z,96831.66
2022-10-14T03:57:29.582Z,96834.03
2022-10-14T03:59:58.811Z,96836.63
2022-10-14T04:02:41.646Z,96833.56
2022-10-14T04:05:29.283Z,96834.56
2022-10-14T04:07:57.760Z,96826.75
2022-10-14T04:10:24.488Z,96822.94
2022-10-14T04:12:56.318Z,96824.38
2022-10-14T04:15:30.522Z,96826.66
2022-10-14T04:18:21.125Z,96827.41
2022-10-14T04:20:49.157Z,96825.16
2022-10-14T04:23:17.795Z,96821.75
2022-10-14T04:25:46.844Z,96815.03
2022-10-14T04:28:13.615Z,96807.28
2022-10-14T04:31:04.373Z,96807.66
2022-10-14T04:33:40.464Z,96799.41
2022-10-14T04:36:15.685Z,96797.88
2022-10-14T04:38:42.422Z,96794.53
2022-10-14T04:41:10.271Z,96787.78
2022-10-14T04:43:40.871Z,96787.78
2022-10-14T04:46:19.640Z,96777.03
2022-10-14T04:48:50.301Z,96786.69
2022-10-14T04:51:17.933Z,96787.78
2022-10-14T04:54:04.988Z,96793.34
2022-10-14T04:56:39.691Z,96777.72
2022-10-14T04:59:06.388Z,96777.72
2022-10-14T05:02:05.344Z,96780.19
2022-10-14T05:04:38.780Z,96783.88
2022-10-14T05:07:06.597Z,96782.38
2022-10-14T05:09:33.524Z,96774.56
2022-10-14T05:12:04.299Z,96783.13
2022-10-14T05:14:41.221Z,96770.09
2022-10-14T05:17:16.963Z,96769.75
2022-10-14T05:19:43.540Z,96760.13
2022-10-14T05:22:10.567Z,96765.34
2022-10-14T05:24:41.961Z,96757.81
2022-10-14T05:27:08.547Z,96753.72
2022-10-14T05:29:35.101Z,96765.19
2022-10-14T05:32:02.360Z,96752.94
2022-10-14T05:34:37.294Z,96755.22
2022-10-14T05:37:07.105Z,96757.50
2022-10-14T05:39:41.042Z,96753.06
2022-10-14T05:42:07.775Z,96753.81
2022-10-14T05:44:35.090Z,96750.75
2022-10-14T05:47:04.032Z,96739.25
2022-10-14T05:49:30.686Z,96731.75
2022-10-14T05:51:59.614Z,96741.09
2022-10-14T05:54:26.240Z,96728.41
2022-10-14T05:56:55.008Z,96741.44
2022-10-14T05:59:23.380Z,96743.59
2022-10-14T06:01:49.934Z,96741.00
2022-10-14T06:04:20.093Z,96738.75
2022-10-14T06:06:46.899Z,96742.13
2022-10-14T06:09:15.274Z,96737.66
2022-10-14T06:11:42.264Z,96738.75
2022-10-14T06:14:09.292Z,96747.84
2022-10-14T06:16:35.987Z,96743.06
2022-10-14T06:19:05.484Z,96741.94
2022-10-14T06:21:32.115Z,96740.09
2022-10-14T06:23:58.691Z,96736.06
2022-10-14T06:26:25.332Z,96744.00
2022-10-14T06:28:52.009Z,96748.34
2022-10-14T06:31:18.731Z,96749.09
2022-10-14T06:33:45.281Z,96750.72
2022-10-14T06:36:12.187Z,96746.25
2022-10-14T06:38:38.934Z,96738.03
2022-10-14T06:41:05.631Z,96733.97
2022-10-14T06:43:32.295Z,96732.22
2022-10-14T06:45:59.548Z,96728.56
2022-10-14T06:48:26.226Z,96721.13
2022-10-14T06:50:53.193Z,96713.28
2022-10-14T06:53:20.073Z,96707.50
2022-10-14T06:55:46.830Z,96699.44
2022-10-14T06:58:13.421Z,96698.75
2022-10-14T07:00:42.231Z,96699.38
2022-10-14T07:03:12.214Z,96702.03
2022-10-14T07:05:38.775Z,96697.41
2022-10-14T07:08:05.372Z,96694.97
2022-10-14T07:10:31.930Z,96708.38
2022-10-14T07:12:58.566Z,96700.94
2022-10-14T07:15:25.089Z,96702.47
2022-10-14T07:17:51.621Z,96688.66
2022-10-14T07:20:18.236Z,96686.38
2022-10-14T07:22:47.876Z,96696.16
2022-10-14T07:25:14.422Z,96684.97
2022-10-14T07:27:43.974Z,96701.03
2022-10-14T07:30:13.815Z,96704.81
2022-10-14T07:32:43.186Z,96701.88
2022-10-14T07:35:09.797Z,96681.09
2022-10-14T07:37:36.446Z,96688.97
2022-10-14T07:40:03.390Z,96687.56
2022-10-14T07:42:30.042Z,96683.09
2022-10-14T07:44:57.875Z,96675.69
2022-10-14T07:47:24.798Z,96676.44
2022-10-14T07:49:51.673Z,96675.44
2022-10-14T07:52:19.739Z,96667.41
2022-10-14T07:54:46.424Z,96660.75
2022-10-14T07:57:13.060Z,96658.03
2022-10-14T07:59:39.607Z,96668.91
2022-10-14T08:02:06.414Z,96660.94
2022-10-14T08:04:33.096Z,96663.13
2022-10-14T08:06:59.718Z,96665.41
2022-10-14T08:11:53.763Z,96662.03
2022-10-14T08:14:20.436Z,96652.06
2022-10-14T08:16:47.511Z,96639.84
2022-10-14T08:19:14.992Z,96641.75
2022-10-14T08:21:43.001Z,96650.34
2022-10-14T08:24:10.468Z,96642.59
2022-10-14T08:26:49.997Z,96635.72
2022-10-14T08:29:17.075Z,96640.81
2022-10-14T08:31:43.738Z,96632.78
2022-10-14T08:34:11.258Z,96638.50
2022-10-14T08:36:38.133Z,96642.47
2022-10-14T08:39:05.789Z,96632.88
2022-10-14T08:41:42.290Z,96632.56
2022-10-14T08:44:23.075Z,96629.66
2022-10-14T08:46:56.424Z,96622.59
2022-10-14T08:49:58.885Z,96622.09
2022-10-14T08:52:48.213Z,96618.34
2022-10-14T08:55:46.601Z,96615.31
2022-10-14T08:58:20.750Z,96620.16
2022-10-14T09:00:51.205Z,96620.44
2022-10-14T09:03:22.882Z,96612.75
2022-10-14T09:05:58.681Z,96603.59
2022-10-14T09:08:32.590Z,96599.34
2022-10-14T09:10:59.337Z,96587.84
2022-10-14T09:13:38.340Z,96596.69
2022-10-14T09:16:27.150Z,96586.03
2022-10-14T09:18:56.723Z,96602.47
2022-10-14T09:21:53.319Z,96593.38
2022-10-14T09:24:25.353Z,96589.47
2022-10-14T09:29:48.621Z,96583.53
2022-10-14T09:32:41.367Z,96587.22
2022-10-14T09:35:23.484Z,96576.44
2022-10-14T09:37:50.729Z,96585.69
2022-10-14T09:40:24.884Z,96592.53
2022-10-14T09:42:55.754Z,96605.56
2022-10-14T09:45:24.716Z,96598.53
2022-10-14T09:47:51.281Z,96620.53
2022-10-14T09:50:27.330Z,96601.66
2022-10-14T09:53:10.810Z,96619.91
2022-10-14T09:55:46.694Z,96608.78
2022-10-14T09:58:18.195Z,96615.84
2022-10-14T10:00:46.017Z,96624.00
2022-10-14T10:03:32.801Z,96627.34
2022-10-14T10:06:08.966Z,96622.31
2022-10-14T10:08:58.134Z,96626.13
2022-10-14T10:11:33.527Z,96650.47
2022-10-14T10:14:29.789Z,96676.28
2022-10-14T10:17:08.483Z,96692.00
2022-10-14T10:19:40.399Z,96688.28
2022-10-14T10:25:08.760Z,96687.25
2022-10-14T10:27:43.188Z,96709.91
2022-10-14T10:30:18.882Z,96738.06
2022-10-14T10:32:51.382Z,96750.28
2022-10-14T10:35:39.565Z,96745.19
2022-10-14T10:38:12.359Z,96763.06
2022-10-14T10:40:47.349Z,96757.13
2022-10-14T10:43:31.481Z,96758.97
2022-10-14T10:46:17.869Z,96751.03
2022-10-14T10:49:03.185Z,96758.50
2022-10-14T10:51:48.784Z,96736.09
2022-10-14T10:54:40.060Z,96748.50
2022-10-14T10:57:24.989Z,96759.41
2022-10-14T10:59:56.642Z,96739.41
2022-10-14T11:02:44.870Z,96734.41
2022-10-14T11:05:29.899Z,96734.00
2022-10-14T11:08:27.033Z,96727.50
2022-10-14T11:11:15.465Z,96695.91
2022-10-14T11:13:56.899Z,96679.78
2022-10-14T11:16:42.839Z,96663.91
2022-10-14T11:19:23.675Z,96654.16
2022-10-14T11:22:05.268Z,96655.44
2022-10-14T11:24:31.845Z,96647.34
2022-10-14T11:27:27.432Z,96633.50
2022-10-14T11:30:14.118Z,96619.22
2022-10-14T11:32:59.217Z,96619.59
2022-10-14T11:35:50.871Z,96635.19
2022-10-14T11:38:48.419Z,96627.75
2022-10-14T11:41:58.696Z,96615.41
2022-10-14T11:44:39.022Z,96600.78
2022-10-14T11:47:12.823Z,96587.63
2022-10-14T11:49:49.151Z,96572.69
2022-10-14T11:52:28.930Z,96570.75
2022-10-14T11:55:18.065Z,96546.84
2022-10-14T11:57:49.397Z,96535.28
2022-10-14T12:00:37.785Z,96522.09
2022-10-14T12:03:26.122Z,96516.84
2022-10-14T12:06:14.528Z,96525.38
2022-10-14T12:08:56.503Z,96499.56
2022-10-14T12:11:38.051Z,96494.44
2022-10-14T12:14:25.398Z,96487.69
2022-10-14T12:16:53.169Z,96487.38
2022-10-14T12:19:26.415Z,96496.22
2022-10-14T12:21:57.643Z,96481.72
2022-10-14T12:24:35.881Z,96486.94
2022-10-14T12:27:04.793Z,96469.31
2022-10-14T12:29:35.826Z,96466.09
2022-10-14T12:32:17.464Z,96464.28
2022-10-14T12:34:45.066Z,96473.56
2022-10-14T12:37:27.268Z,96455.63
2022-10-14T12:40:22.819Z,96452.56
2022-10-14T12:43:01.560Z,96441.47
2022-10-14T12:45:30.532Z,96437.69
2022-10-14T12:48:21.419Z,96439.09
2022-10-14T12:50:50.347Z,96418.25
2022-10-14T12:53:29.973Z,96421.97
2022-10-14T12:56:02.071Z,96418.56
2022-10-14T12:58:36.406Z,96420.78
2022-10-14T13:01:16.649Z,96417.81
2022-10-14T13:03:47.344Z,96403.63
2022-10-14T13:06:35.471Z,96406.97
2022-10-14T13:09:11.512Z,96403.16
2022-10-14T13:11:46.544Z,96389.34
2022-10-14T13:14:31.253Z,96377.00
2022-10-14T13:17:24.396Z,96364.63
2022-10-14T13:19:52.217Z,96372.09
2022-10-14T13:22:31.367Z,96356.78
2022-10-14T13:25:21.738Z,96349.66
2022-10-14T13:28:05.817Z,96336.44
2022-10-14T13:30:36.717Z,96328.66
2022-10-14T13:33:13.735Z,96330.97
2022-10-14T13:35:57.944Z,96313.47
2022-10-14T13:38:24.741Z,96295.84
2022-10-14T13:40:54.150Z,96300.75
2022-10-14T13:43:26.968Z,96310.53
2022-10-14T13:46:04.163Z,96317.69
2022-10-14T13:48:34.763Z,96323.34
2022-10-14T13:51:24.372Z,96324.81
2022-10-14T13:54:22.714Z,96326.72
2022-10-14T13:57:42.604Z,96340.13
2022-10-14T14:02:50.389Z,96346.91
2022-10-14T14:05:26.170Z,96329.69
2022-10-14T14:11:03.657Z,96333.06
2022-10-14T14:13:30.017Z,96313.97
2022-10-14T14:15:57.000Z,96308.84
2022-10-14T14:18:49.281Z,96301.69
2022-10-14T14:21:24.421Z,96306.94
2022-10-14T14:23:52.076Z,96301.00
2022-10-14T14:26:19.830Z,96299.13
2022-10-14T14:28:48.187Z,96299.25
2022-10-14T14:31:19.459Z,96302.25
2022-10-14T14:33:46.779Z,96290.66
2022-10-14T14:36:27.969Z,96281.31
2022-10-14T14:39:01.946Z,96298.50
2022-10-14T14:41:30.394Z,96301.47
2022-10-14T14:44:26.772Z,96287.63
2022-10-14T14:46:49.406Z,96291.41
2022-10-14T14:49:21.396Z,96282.09
2022-10-14T14:51:48.517Z,96283.56
2022-10-14T14:54:19.115Z,96293.66
2022-10-14T14:56:49.751Z,96294.41
2022-10-14T14:59:30.213Z,96269.72
2022-10-14T15:04:28.232Z,96264.78
2022-10-14T15:06:59.264Z,96271.94
2022-10-14T15:09:44.822Z,96286.16
2022-10-14T15:12:30.790Z,96277.22
2022-10-14T15:14:59.451Z,96285.03
2022-10-14T15:17:33.107Z,96270.09
2022-10-14T15:20:21.223Z,96268.91
2022-10-14T15:22:49.201Z,96281.63
2022-10-14T15:25:18.114Z,96288.38
2022-10-14T15:27:51.217Z,96275.25
2022-10-14T15:30:35.302Z,96274.53
2022-10-14T15:33:20.701Z,96276.75
2022-10-14T15:35:55.991Z,96261.78
2022-10-14T15:38:23.165Z,96269.63
2022-10-14T15:40:51.074Z,96265.19
2022-10-14T15:43:25.593Z,96258.06
2022-10-14T15:46:15.259Z,96261.78
2022-10-14T15:48:48.879Z,96254.31
2022-10-14T15:51:18.018Z,96262.56
2022-10-14T15:53:44.551Z,96250.22
2022-10-14T15:56:11.312Z,96258.06
2022-10-14T15:58:38.137Z,96249.41
2022-10-14T16:01:06.625Z,96244.19
2022-10-14T16:03:35.994Z,96241.16
2022-10-14T16:06:09.995Z,96252.31
2022-10-14T16:08:38.466Z,96227.28
2022-10-14T16:11:27.789Z,96223.84
2022-10-14T16:13:54.384Z,96219.00
2022-10-14T16:16:33.156Z,96219.38
2022-10-14T16:19:02.356Z,96218.22
2022-10-14T16:21:33.219Z,96217.06
2022-10-14T16:24:02.277Z,96221.19
2022-10-14T16:26:29.461Z,96215.19
2022-10-14T16:28:56.373Z,96215.97
2022-10-14T16:31:23.180Z,96203.22
2022-10-14T16:33:56.286Z,96205.78
2022-10-14T16:36:26.113Z,96210.66
2022-10-14T16:38:54.388Z,96212.50
2022-10-14T16:41:21.074Z,96219.59
2022-10-14T16:43:47.770Z,96210.63
2022-10-14T16:46:17.419Z,96201.63
2022-10-14T16:48:46.535Z,96207.97
2022-10-14T16:51:13.278Z,96216.56
2022-10-14T16:53:48.743Z,96213.94
2022-10-14T16:56:33.883Z,96207.63
2022-10-14T16:59:01.177Z,96221.78
2022-10-14T17:01:28.644Z,96235.97
2022-10-14T17:03:56.560Z,96237.50
2022-10-14T17:06:24.595Z,96233.00
2022-10-14T17:08:51.436Z,96227.78
2022-10-14T17:11:18.965Z,96213.63
2022-10-14T17:13:45.855Z,96223.31
2022-10-14T17:16:12.550Z,96230.06
2022-10-14T17:18:41.174Z,96240.44
2022-10-14T17:21:15.024Z,96231.47
2022-10-14T17:23:43.810Z,96230.38
2022-10-14T17:26:13.062Z,96207.56
2022-10-14T17:28:41.840Z,96226.56
2022-10-14T17:31:10.489Z,96222.84
2022-10-14T17:33:37.832Z,96228.75
2022-10-14T17:36:06.504Z,96232.13
2022-10-14T17:38:34.935Z,96229.50
2022-10-14T17:41:03.836Z,96223.91
2022-10-14T17:43:31.144Z,96224.63
2022-10-14T17:46:05.821Z,96241.47
2022-10-14T17:48:33.623Z,96244.81
2022-10-14T17:51:00.205Z,96239.97
2022-10-14T17:53:26.741Z,96228.00
2022-10-14T17:55:56.842Z,96242.47
2022-10-14T17:58:24.335Z,96257.06
2022-10-14T18:00:50.864Z,96247.34
2022-10-14T18:03:18.524Z,96260.78
2022-10-14T18:05:48.767Z,96253.34
2022-10-14T18:08:15.692Z,96248.91
2022-10-14T18:10:42.378Z,96247.47
2022-10-14T18:13:08.968Z,96242.63
2022-10-14T18:15:36.376Z,96232.19
2022-10-14T18:18:02.994Z,96221.72
2022-10-14T18:20:29.526Z,96208.31
2022-10-14T18:22:56.119Z,96200.09
2022-10-14T18:25:22.929Z,96199.72
2022-10-14T18:27:49.499Z,96202.78
2022-10-14T18:30:16.181Z,96192.34
2022-10-14T18:32:42.757Z,96181.88
2022-10-14T18:35:09.637Z,96174.75
2022-10-14T18:37:36.178Z,96178.09
2022-10-14T18:40:02.749Z,96186.72
2022-10-14T18:42:29.294Z,96186.72
2022-10-14T18:44:56.415Z,96189.69
2022-10-14T18:47:22.951Z,96179.97
2022-10-14T18:49:51.101Z,96183.00
2022-10-14T18:52:18.947Z,96182.25
2022-10-14T18:54:45.568Z,96190.44
2022-10-14T18:57:15.013Z,96188.97
2022-10-14T18:59:42.026Z,96184.88
2022-10-14T19:02:13.795Z,96190.13
2022-10-14T19:04:40.381Z,96179.97
2022-10-14T19:07:07.283Z,96163.94
2022-10-14T19:09:34.229Z,96160.56
2022-10-14T19:12:01.054Z,96162.84
2022-10-14T19:14:28.780Z,96161.66
2022-10-14T19:16:55.450Z,96159.81
2022-10-14T19:19:22.144Z,96161.66
2022-10-14T19:21:50.885Z,96160.97
2022-10-14T19:24:17.857Z,96158.69
2022-10-14T19:26:46.728Z,96154.56
2022-10-14T19:29:15.153Z,96154.22
2022-10-14T19:31:43.681Z,96151.94
2022-10-14T19:34:12.753Z,96150.47
2022-10-14T19:36:40.485Z,96145.56
2022-10-14T19:39:08.857Z,96137.34
2022-10-14T19:41:42.798Z,96144.81
2022-10-14T19:44:10.741Z,96139.22
2022-10-14T19:46:37.887Z,96144.81
2022-10-14T19:49:05.104Z,96142.56
2022-10-14T19:51:32.766Z,96144.81
2022-10-14T19:53:59.750Z,96153.81
2022-10-14T19:56:27.714Z,96149.31
2022-10-14T19:58:57.045Z,96144.09
2022-10-14T20:01:26.002Z,96147.13
2022-10-14T20:03:53.599Z,96148.22
2022-10-14T20:06:21.396Z,96150.09
2022-10-14T20:08:48.089Z,96143.38
2022-10-14T20:11:17.363Z,96141.84
2022-10-14T20:13:44.753Z,96135.50
2022-10-14T20:16:12.525Z,96140.34
2022-10-14T20:18:39.352Z,96159.03
2022-10-14T20:21:07.378Z,96140.75
2022-10-14T20:23:40.833Z,96136.25
2022-10-14T20:26:19.895Z,96133.94
2022-10-14T20:28:47.407Z,96125.72
2022-10-14T20:31:17.002Z,96127.22
2022-10-14T20:33:43.581Z,96132.06
2022-10-14T20:36:15.643Z,96114.88
2022-10-14T20:38:43.165Z,96119.00
2022-10-14T20:41:16.227Z,96113.72
2022-10-14T20:43:44.088Z,96114.09
2022-10-14T20:46:11.482Z,96115.22
2022-10-14T20:48:38.158Z,96105.09
2022-10-14T20:51:06.371Z,96121.91
2022-10-14T20:53:33.292Z,96110.69
2022-10-14T20:56:17.870Z,96103.59
2022-10-14T20:58:44.538Z,96099.13
2022-10-14T21:01:16.308Z,96092.41
2022-10-14T21:03:45.537Z,96094.22
2022-10-14T21:06:14.675Z,96079.66
2022-10-14T21:08:41.980Z,96083.41
2022-10-14T21:11:14.064Z,96073.69
2022-10-14T21:13:47.290Z,96078.50
2022-10-14T21:16:14.106Z,96079.25
2022-10-14T21:18:40.676Z,96079.25
2022-10-14T21:21:08.070Z,96071.75
2022-10-14T21:23:36.106Z,96069.13
2022-10-14T21:26:02.685Z,96060.19
2022-10-14T21:28:29.244Z,96072.13
2022-10-14T21:30:55.938Z,96074.34
2022-10-14T21:33:22.658Z,96067.22
2022-10-14T21:35:49.345Z,96056.78
2022-10-14T21:38:15.880Z,96060.13
2022-10-14T21:40:42.558Z,96058.31
2022-10-14T21:43:09.100Z,96062.75
2022-10-14T21:45:35.646Z,96064.28
2022-10-14T21:48:02.302Z,96055.72
2022-10-14T21:50:28.873Z,96053.44
2022-10-14T21:52:55.452Z,96057.59
2022-10-14T21:55:22.058Z,96035.53
2022-10-14T21:57:48.563Z,96018.31
2022-10-14T22:00:15.337Z,96026.53
2022-10-14T22:02:41.909Z,96037.75
2022-10-14T22:05:08.690Z,96026.94
2022-10-14T22:07:35.246Z,96033.25
2022-10-14T22:10:01.821Z,96039.22
2022-10-14T22:12:29.960Z,96037.41
2022-10-14T22:14:56.518Z,96043.72
2022-10-14T22:17:23.295Z,96050.84
2022-10-14T22:19:50.064Z,96046.72
2022-10-14T22:22:17.108Z,96033.28
2022-10-14T22:24:43.675Z,96029.59
2022-10-14T22:27:10.207Z,96031.06
2022-10-14T22:29:36.758Z,96029.94
2022-10-14T22:32:03.360Z,96029.19
2022-10-14T22:34:29.932Z,96028.84
2022-10-14T22:36:56.507Z,96024.38
2022-10-14T22:39:23.068Z,96016.88
2022-10-14T22:41:50.046Z,96007.53
2022-10-14T22:44:16.840Z,96008.69
2022-10-14T22:46:43.413Z,96007.19
2022-10-14T22:49:10.395Z,96001.59
2022-10-14T22:51:40.672Z,96007.19
2022-10-14T22:54:07.814Z,96000.09
2022-10-14T22:56:34.452Z,95995.28
2022-10-14T22:59:07.289Z,96002.72
2022-10-14T23:01:34.548Z,95998.25
2022-10-14T23:04:01.296Z,95980.28
2022-10-14T23:06:29.158Z,95989.66
2022-10-14T23:08:56.186Z,95968.00
2022-10-14T23:11:24.517Z,95980.69
2022-10-14T23:13:51.525Z,95985.88
2022-10-14T23:16:21.075Z,95989.25
2022-10-14T23:18:48.206Z,95983.28
2022-10-14T23:21:20.476Z,95990.41
2022-10-14T23:23:48.808Z,95985.16
2022-10-14T23:26:18.854Z,95984.03
2022-10-14T23:28:48.842Z,95989.25
2022-10-14T23:31:17.476Z,95982.16
2022-10-14T23:33:44.178Z,95977.31
2022-10-14T23:36:13.299Z,95986.63
2022-10-14T23:38:40.725Z,95980.28
2022-10-14T23:41:09.079Z,95984.00
2022-10-14T23:43:36.274Z,95978.03
2022-10-14T23:46:03.683Z,95977.28
2022-10-14T23:48:30.347Z,95986.97
2022-10-14T23:50:57.338Z,95983.28
2022-10-14T23:53:26.293Z,95990.38
2022-10-14T23:55:53.674Z,95985.13
2022-10-14T23:58:20.439Z,95982.88
